Time;durP1;ratioP1;P1;durP2;ratioP2;P2;SDS_P1;SDS_P2;PMS_P1;PMS_P2;Temp;Humidity;BMP_temperature;BMP_pressure;BME280_temperature;BME280_humidity;BME280_pressure;Samples;Min_cycle;Max_cycle;Signal;HPM_P1;HPM_P2
2022/09/27 00:01:31;;;;;;;6.93;4.25;;;;;;;;;;5065707;28;20051;-73
2022/09/27 00:04:01;;;;;;;13.57;4.05;;;;;;;;;;5065152;28;20511;-74
2022/09/27 00:06:32;;;;;;;18.80;4.60;;;;;;;;;;5065007;28;20471;-72
2022/09/27 00:09:09;;;;;;;14.02;3.97;;;;;;;;;;5065297;28;20051;-72
2022/09/27 00:11:41;;;;;;;14.35;4.38;;;;;;;;;;5062471;28;20078;-74
2022/09/27 00:14:13;;;;;;;20.77;4.75;;;;;;;;;;5065821;28;20048;-72
2022/09/27 00:16:44;;;;;;;10.40;4.30;;;;;;;;;;5065644;28;20522;-72
2022/09/27 00:19:17;;;;;;;8.32;4.43;;;;;;;;;;5067165;28;20053;-75
2022/09/27 00:21:48;;;;;;;6.32;3.58;;;;;;;;;;5069195;28;20537;-72
2022/09/27 00:24:21;;;;;;;10.38;3.67;;;;;;;;;;5068957;28;20052;-72
2022/09/27 00:26:52;;;;;;;5.72;3.35;;;;;;;;;;5069414;28;20056;-72
2022/09/27 00:29:21;;;;;;;9.80;3.22;;;;;;;;;;5062698;28;20075;-72
2022/09/27 00:31:52;;;;;;;5.13;3.33;;;;;;;;;;5068285;28;20052;-76
2022/09/27 00:34:25;;;;;;;9.93;3.72;;;;;;;;;;5064949;28;20044;-77
2022/09/27 00:36:55;;;;;;;10.95;4.32;;;;;;;;;;5053944;28;20072;-73
2022/09/27 00:39:25;;;;;;;7.47;3.17;;;;;;;;;;5058566;28;20503;-79
2022/09/27 00:41:55;;;;;;;10.32;4.40;;;;;;;;;;5058256;28;20051;-74
2022/09/27 00:44:32;;;;;;;7.07;4.38;;;;;;;;;;5057774;28;20056;-73
2022/09/27 00:47:05;;;;;;;12.40;4.57;;;;;;;;;;5059512;28;20048;-76
2022/09/27 00:49:47;;;;;;;18.02;4.13;;;;;;;;;;5058731;28;20037;-76
2022/09/27 00:52:40;;;;;;;6.57;4.22;;;;;;;;;;5057181;28;20056;-77
2022/09/27 00:55:23;;;;;;;13.30;4.30;;;;;;;;;;5056491;28;20041;-75
2022/09/27 00:57:53;;;;;;;9.60;3.60;;;;;;;;;;5053975;28;20048;-77
2022/09/27 01:00:23;;;;;;;10.85;3.67;;;;;;;;;;5051401;28;20056;-75
2022/09/27 01:02:55;;;;;;;9.98;4.57;;;;;;;;;;5048767;28;20063;-74
2022/09/27 01:05:28;;;;;;;13.57;5.10;;;;;;;;;;5049152;28;20052;-77
2022/09/27 01:07:59;;;;;;;14.90;5.00;;;;;;;;;;5048716;28;20052;-73
2022/09/27 01:10:37;;;;;;;6.95;4.78;;;;;;;;;;5047642;28;20060;-76
2022/09/27 01:13:29;;;;;;;7.95;3.58;;;;;;;;;;5048382;28;20443;-77
2022/09/27 01:16:04;;;;;;;14.05;4.82;;;;;;;;;;5049120;28;20617;-74
2022/09/27 01:19:13;;;;;;;13.32;5.18;;;;;;;;;;5048600;28;20063;-74
2022/09/27 01:21:51;;;;;;;11.77;4.70;;;;;;;;;;5048360;28;20040;-71
2022/09/27 01:25:06;;;;;;;7.03;4.07;;;;;;;;;;5047713;28;20048;-77
2022/09/27 01:27:58;;;;;;;13.90;4.13;;;;;;;;;;5031014;28;20045;-71
2022/09/27 01:30:42;;;;;;;11.75;4.07;;;;;;;;;;5045860;28;20429;-79
2022/09/27 01:33:45;;;;;;;11.57;4.68;;;;;;;;;;5046196;28;20059;-78
2022/09/27 01:36:33;;;;;;;10.35;4.07;;;;;;;;;;5040797;28;20052;-76
2022/09/27 01:39:08;;;;;;;7.88;4.80;;;;;;;;;;5046345;28;20508;-75
2022/09/27 01:42:39;;;;;;;11.27;4.45;;;;;;;;;;5048270;28;20053;-72
2022/09/27 01:45:21;;;;;;;8.60;3.47;;;;;;;;;;5045599;28;20419;-76
2022/09/27 01:48:15;;;;;;;6.13;3.53;;;;;;;;;;5046370;28;20543;-74
2022/09/27 01:51:21;;;;;;;8.88;4.05;;;;;;;;;;5047104;28;20548;-75
2022/09/27 01:53:55;;;;;;;11.48;4.40;;;;;;;;;;5046215;28;20053;-75
2022/09/27 01:56:33;;;;;;;7.70;3.70;;;;;;;;;;5053469;28;20059;-75
2022/09/27 01:59:19;;;;;;;8.90;4.20;;;;;;;;;;5046057;28;20420;-76
2022/09/27 02:02:02;;;;;;;8.77;4.47;;;;;;;;;;5045454;28;20045;-74
2022/09/27 02:04:55;;;;;;;7.22;4.03;;;;;;;;;;5045429;28;20041;-73
2022/09/27 02:07:52;;;;;;;11.13;4.57;;;;;;;;;;5046222;28;20476;-74
2022/09/27 02:10:29;;;;;;;7.65;5.03;;;;;;;;;;5045600;28;20049;-72
2022/09/27 02:13:20;;;;;;;5.85;3.70;;;;;;;;;;5045791;28;20052;-77
2022/09/27 02:16:04;;;;;;;7.68;5.03;;;;;;;;;;5045576;28;20045;-74
2022/09/27 02:18:49;;;;;;;;;;;;;;;;;;5045508;28;20064;-76
2022/09/27 02:21:21;;;;;;;10.10;4.50;;;;;;;;;;5045476;28;19948;-75
2022/09/27 02:23:57;;;;;;;10.35;5.22;;;;;;;;;;5047267;28;20071;-74
2022/09/27 02:26:42;;;;;;;11.20;5.50;;;;;;;;;;5046191;28;20063;-76
2022/09/27 02:29:18;;;;;;;9.25;5.18;;;;;;;;;;5047478;28;20057;-75
2022/09/27 02:31:51;;;;;;;10.10;5.50;;;;;;;;;;5045528;28;20053;-76
2022/09/27 02:34:31;;;;;;;9.30;5.18;;;;;;;;;;5045791;28;20049;-74
2022/09/27 02:37:01;;;;;;;8.88;4.35;;;;;;;;;;5045058;28;20052;-75
2022/09/27 02:39:31;;;;;;;11.05;5.28;;;;;;;;;;5045663;28;20060;-74
2022/09/27 02:42:05;;;;;;;12.45;4.60;;;;;;;;;;5044337;28;20075;-73
2022/09/27 02:44:37;;;;;;;6.25;4.72;;;;;;;;;;5044967;28;20076;-73
2022/09/27 02:47:45;;;;;;;8.63;4.60;;;;;;;;;;5046970;28;20056;-75
2022/09/27 02:50:32;;;;;;;7.55;5.32;;;;;;;;;;5033973;28;20049;-72
2022/09/27 02:53:29;;;;;;;8.20;5.28;;;;;;;;;;5051252;28;20056;-73
2022/09/27 02:56:15;;;;;;;9.52;5.60;;;;;;;;;;5045217;28;20060;-76
2022/09/27 02:59:30;;;;;;;8.65;5.47;;;;;;;;;;5052458;28;20045;-76
2022/09/27 03:02:41;;;;;;;8.73;5.65;;;;;;;;;;4992071;28;20064;-73
2022/09/27 03:05:43;;;;;;;6.78;4.63;;;;;;;;;;5044909;28;20052;-75
2022/09/27 03:08:15;;;;;;;10.40;5.40;;;;;;;;;;5045105;28;20095;-70
2022/09/27 03:10:44;;;;;;;11.77;5.72;;;;;;;;;;5045214;28;20056;-72
2022/09/27 03:13:14;;;;;;;10.82;6.32;;;;;;;;;;5046158;28;20052;-75
2022/09/27 03:15:45;;;;;;;8.73;5.25;;;;;;;;;;5044896;28;20796;-74
2022/09/27 03:18:19;;;;;;;9.90;6.78;;;;;;;;;;5050050;28;20093;-75
2022/09/27 03:21:07;;;;;;;11.88;6.53;;;;;;;;;;5046735;28;20053;-76
2022/09/27 03:23:37;;;;;;;10.77;5.93;;;;;;;;;;5045257;28;20447;-76
2022/09/27 03:26:07;;;;;;;10.63;6.80;;;;;;;;;;5044861;28;20057;-76
2022/09/27 03:28:41;;;;;;;13.70;5.43;;;;;;;;;;5044440;28;20057;-75
2022/09/27 03:31:10;;;;;;;11.10;5.38;;;;;;;;;;5049806;28;20427;-69
2022/09/27 03:33:47;;;;;;;11.48;5.35;;;;;;;;;;5055462;28;20447;-69
2022/09/27 03:36:17;;;;;;;11.95;6.40;;;;;;;;;;5046220;28;20500;-72
2022/09/27 03:38:47;;;;;;;15.43;6.18;;;;;;;;;;5046378;28;20045;-72
2022/09/27 03:41:19;;;;;;;10.63;5.85;;;;;;;;;;5044325;28;20061;-74
2022/09/27 03:43:49;;;;;;;11.48;6.28;;;;;;;;;;5044363;28;20419;-76
2022/09/27 03:46:19;;;;;;;13.38;6.38;;;;;;;;;;5044297;28;20068;-75
2022/09/27 03:48:49;;;;;;;10.55;6.40;;;;;;;;;;5044562;28;20049;-73
2022/09/27 03:51:19;;;;;;;14.63;7.57;;;;;;;;;;5044729;28;20057;-73
2022/09/27 03:53:50;;;;;;;14.60;7.28;;;;;;;;;;5049058;28;20048;-72
2022/09/27 03:56:19;;;;;;;10.48;6.18;;;;;;;;;;5047981;28;20052;-72
2022/09/27 03:58:49;;;;;;;9.25;6.38;;;;;;;;;;5048108;28;20056;-73
2022/09/27 04:01:19;;;;;;;17.52;7.10;;;;;;;;;;5048673;28;20052;-73
2022/09/27 04:03:54;;;;;;;10.27;6.65;;;;;;;;;;5048468;28;20037;-75
2022/09/27 04:06:33;;;;;;;10.95;7.82;;;;;;;;;;5048155;28;20068;-72
2022/09/27 04:09:04;;;;;;;13.13;7.10;;;;;;;;;;5047742;28;20053;-75
2022/09/27 04:11:55;;;;;;;10.20;6.40;;;;;;;;;;5049111;28;20045;-73
2022/09/27 04:14:26;;;;;;;10.27;6.82;;;;;;;;;;5047567;28;20055;-71
2022/09/27 04:17:16;;;;;;;9.75;5.97;;;;;;;;;;5018578;28;20064;-76
2022/09/27 04:20:11;;;;;;;13.93;7.18;;;;;;;;;;5049622;28;20049;-78
2022/09/27 04:22:44;;;;;;;11.00;7.18;;;;;;;;;;5047623;28;20064;-73
2022/09/27 04:25:14;;;;;;;13.43;7.35;;;;;;;;;;5049851;28;20052;-76
2022/09/27 04:27:45;;;;;;;9.48;6.72;;;;;;;;;;5047750;28;20067;-77
2022/09/27 04:30:15;;;;;;;15.70;8.40;;;;;;;;;;5047784;28;20527;-70
2022/09/27 04:33:11;;;;;;;12.38;7.63;;;;;;;;;;5041060;28;20049;-75
2022/09/27 04:36:26;;;;;;;15.68;7.97;;;;;;;;;;4968575;28;20051;-75
2022/09/27 04:39:06;;;;;;;12.57;7.85;;;;;;;;;;4952166;28;20127;-74
2022/09/27 04:41:39;;;;;;;17.38;8.30;;;;;;;;;;5025725;28;20053;-73
2022/09/27 04:44:10;;;;;;;13.25;7.10;;;;;;;;;;5048375;28;20500;-71
2022/09/27 04:46:42;;;;;;;16.63;7.97;;;;;;;;;;5047527;28;20056;-73
2022/09/27 04:49:13;;;;;;;11.88;8.15;;;;;;;;;;5047805;28;20496;-73
2022/09/27 04:51:45;;;;;;;12.90;8.65;;;;;;;;;;5047913;28;20079;-71
2022/09/27 04:54:16;;;;;;;18.80;9.07;;;;;;;;;;5049837;28;20055;-77
2022/09/27 04:56:54;;;;;;;16.42;7.22;;;;;;;;;;5047244;28;20851;-74
2022/09/27 04:59:26;;;;;;;12.65;7.65;;;;;;;;;;5047717;28;20053;-76
2022/09/27 05:01:59;;;;;;;13.63;7.97;;;;;;;;;;5049085;28;20056;-79
2022/09/27 05:05:00;;;;;;;12.48;8.38;;;;;;;;;;5046707;28;20060;-73
2022/09/27 05:07:37;;;;;;;12.02;8.20;;;;;;;;;;5047366;28;20059;-70
2022/09/27 05:10:12;;;;;;;12.55;9.10;;;;;;;;;;5047482;28;20079;-73
2022/09/27 05:12:42;;;;;;;11.45;8.23;;;;;;;;;;5047332;28;20064;-73
2022/09/27 05:15:15;;;;;;;11.48;7.63;;;;;;;;;;5048082;28;20053;-72
2022/09/27 05:18:02;;;;;;;;;;;;;;;;;;5051553;28;20049;-72
2022/09/27 05:20:59;;;;;;;12.13;7.53;;;;;;;;;;5032368;28;19921;-76
2022/09/27 05:23:36;;;;;;;11.02;7.90;;;;;;;;;;5047632;28;20063;-78
2022/09/27 05:26:07;;;;;;;10.57;6.82;;;;;;;;;;5047992;28;20057;-72
2022/09/27 05:28:37;;;;;;;14.02;8.20;;;;;;;;;;5030998;28;20056;-74
2022/09/27 05:31:07;;;;;;;14.35;7.63;;;;;;;;;;5028413;28;20057;-70
2022/09/27 05:33:38;;;;;;;11.00;7.55;;;;;;;;;;5028665;28;20053;-75
2022/09/27 05:36:25;;;;;;;13.60;8.18;;;;;;;;;;5031068;28;20057;-75
2022/09/27 05:38:56;;;;;;;15.90;8.23;;;;;;;;;;5027458;28;20057;-73
2022/09/27 05:41:26;;;;;;;14.75;8.45;;;;;;;;;;5027060;28;20056;-75
2022/09/27 05:43:56;;;;;;;12.88;7.78;;;;;;;;;;5027602;28;20457;-75
2022/09/27 05:46:27;;;;;;;14.05;9.02;;;;;;;;;;5027861;28;20049;-73
2022/09/27 05:48:57;;;;;;;11.88;7.60;;;;;;;;;;5027347;28;20412;-75
2022/09/27 05:51:27;;;;;;;11.88;6.80;;;;;;;;;;5027863;28;20424;-75
2022/09/27 05:53:56;;;;;;;;;;;;;;;;;;5028985;28;20485;-72
2022/09/27 05:56:28;;;;;;;12.18;8.23;;;;;;;;;;5026586;28;19932;-78
2022/09/27 05:59:19;;;;;;;14.35;8.18;;;;;;;;;;5027862;28;20596;-77
2022/09/27 06:02:10;;;;;;;13.73;8.13;;;;;;;;;;5028151;28;20053;-74
2022/09/27 06:04:59;;;;;;;11.73;6.68;;;;;;;;;;5032459;28;20057;-72
2022/09/27 06:07:48;;;;;;;11.07;7.07;;;;;;;;;;5030254;28;20061;-75
2022/09/27 06:10:30;;;;;;;13.73;7.72;;;;;;;;;;5026954;28;20388;-78
2022/09/27 06:13:03;;;;;;;15.23;8.50;;;;;;;;;;5027261;28;20587;-75
2022/09/27 06:15:38;;;;;;;13.88;7.82;;;;;;;;;;5026450;28;20512;-78
2022/09/27 06:18:15;;;;;;;14.43;8.07;;;;;;;;;;5027447;28;20052;-78
2022/09/27 06:20:47;;;;;;;13.82;8.15;;;;;;;;;;5026057;28;20057;-74
2022/09/27 06:23:21;;;;;;;11.43;7.75;;;;;;;;;;5026769;28;20045;-75
2022/09/27 06:25:53;;;;;;;11.32;7.95;;;;;;;;;;5027305;28;20535;-69
2022/09/27 06:28:37;;;;;;;12.95;7.70;;;;;;;;;;5026553;28;20053;-73
2022/09/27 06:31:08;;;;;;;11.13;7.25;;;;;;;;;;5027025;28;20476;-75
2022/09/27 06:33:41;;;;;;;13.68;7.53;;;;;;;;;;5026100;28;20053;-72
2022/09/27 06:36:11;;;;;;;16.25;7.72;;;;;;;;;;5030316;28;20064;-71
2022/09/27 06:38:45;;;;;;;12.52;8.20;;;;;;;;;;5035947;28;20057;-70
2022/09/27 06:41:21;;;;;;;11.25;7.53;;;;;;;;;;5029604;28;20450;-71
2022/09/27 06:44:06;;;;;;;13.05;7.03;;;;;;;;;;5026435;28;20049;-75
2022/09/27 06:47:16;;;;;;;16.27;7.70;;;;;;;;;;5005770;28;20500;-75
2022/09/27 06:50:12;;;;;;;13.63;7.70;;;;;;;;;;5004554;28;20046;-74
2022/09/27 06:52:48;;;;;;;14.52;8.45;;;;;;;;;;5004555;28;20056;-75
2022/09/27 06:55:19;;;;;;;11.73;6.32;;;;;;;;;;5026258;28;20448;-72
2022/09/27 07:01:04;;;;;;;10.63;7.07;;;;;;;;;;5028078;28;20057;-73
2022/09/27 07:04:04;;;;;;;10.82;6.53;;;;;;;;;;5028233;28;20065;-74
2022/09/27 07:06:53;;;;;;;12.77;8.48;;;;;;;;;;5032795;28;20053;-76
2022/09/27 07:09:30;;;;;;;12.50;7.78;;;;;;;;;;5026605;28;20064;-77
2022/09/27 07:12:00;;;;;;;10.68;7.75;;;;;;;;;;5025581;28;20053;-71
2022/09/27 07:14:33;;;;;;;10.90;7.35;;;;;;;;;;5025463;28;20053;-73
2022/09/27 07:17:04;;;;;;;15.48;8.32;;;;;;;;;;5009526;28;20053;-73
2022/09/27 07:19:42;;;;;;;14.02;7.95;;;;;;;;;;5026098;28;20057;-73
2022/09/27 07:22:13;;;;;;;19.23;8.15;;;;;;;;;;5025291;28;20049;-75
2022/09/27 07:24:46;;;;;;;13.13;7.35;;;;;;;;;;5026366;28;20076;-74
2022/09/27 07:27:17;;;;;;;9.32;7.00;;;;;;;;;;5026202;28;20520;-72
2022/09/27 07:29:47;;;;;;;11.05;7.47;;;;;;;;;;5035341;28;20075;-73
2022/09/27 07:32:18;;;;;;;12.95;7.22;;;;;;;;;;5047879;28;20060;-74
2022/09/27 07:34:48;;;;;;;9.43;6.55;;;;;;;;;;5045232;28;20531;-73
2022/09/27 07:37:17;;;;;;;;;;;;;;;;;;5044991;28;20053;-72
2022/09/27 07:39:47;;;;;;;12.15;6.43;;;;;;;;;;5044757;28;19921;-74
2022/09/27 07:42:16;;;;;;;;;;;;;;;;;;5045631;28;20057;-72
2022/09/27 07:44:49;;;;;;;11.77;6.82;;;;;;;;;;5044658;28;19924;-74
2022/09/27 07:47:41;;;;;;;13.52;7.07;;;;;;;;;;5048623;28;20056;-76
2022/09/27 07:50:20;;;;;;;9.02;6.20;;;;;;;;;;5044772;28;20061;-75
2022/09/27 07:52:58;;;;;;;10.75;7.15;;;;;;;;;;5045265;28;20063;-72
2022/09/27 07:55:43;;;;;;;10.82;6.80;;;;;;;;;;5046172;28;20079;-71
2022/09/27 07:58:19;;;;;;;13.43;7.35;;;;;;;;;;5046987;28;20049;-73
2022/09/27 08:00:53;;;;;;;17.00;6.72;;;;;;;;;;5050132;28;20060;-73
2022/09/27 08:03:25;;;;;;;11.43;7.07;;;;;;;;;;5050947;28;20060;-71
2022/09/27 08:05:55;;;;;;;9.93;6.82;;;;;;;;;;5047989;28;20056;-73
2022/09/27 08:08:25;;;;;;;13.38;7.93;;;;;;;;;;5044968;28;20056;-75
2022/09/27 08:10:55;;;;;;;13.18;6.78;;;;;;;;;;5047932;28;20056;-71
2022/09/27 08:13:25;;;;;;;15.45;7.82;;;;;;;;;;5047769;28;20053;-71
2022/09/27 08:16:00;;;;;;;11.57;6.68;;;;;;;;;;5048276;28;20048;-74
2022/09/27 08:18:44;;;;;;;14.30;7.00;;;;;;;;;;5047035;28;20056;-69
2022/09/27 08:21:32;;;;;;;8.80;6.20;;;;;;;;;;5047501;28;20460;-74
2022/09/27 08:24:32;;;;;;;9.07;6.55;;;;;;;;;;5035766;28;20053;-75
2022/09/27 08:27:09;;;;;;;12.25;6.93;;;;;;;;;;5046205;28;20056;-74
2022/09/27 08:29:52;;;;;;;12.45;7.22;;;;;;;;;;5033355;28;20068;-78
2022/09/27 08:32:23;;;;;;;9.93;7.30;;;;;;;;;;5047571;28;20060;-73
2022/09/27 08:34:54;;;;;;;10.40;7.60;;;;;;;;;;5047831;28;20065;-75
2022/09/27 08:37:24;;;;;;;13.63;7.13;;;;;;;;;;5047463;28;20060;-71
2022/09/27 08:39:54;;;;;;;10.70;6.93;;;;;;;;;;5047954;28;20057;-75
2022/09/27 08:42:31;;;;;;;10.55;7.57;;;;;;;;;;5049283;28;20053;-73
2022/09/27 08:45:11;;;;;;;12.82;6.95;;;;;;;;;;5049979;28;20555;-69
2022/09/27 08:47:53;;;;;;;11.20;7.00;;;;;;;;;;5052451;28;20045;-71
2022/09/27 08:50:34;;;;;;;10.15;7.18;;;;;;;;;;5052012;28;20694;-72
2022/09/27 08:53:24;;;;;;;10.50;6.97;;;;;;;;;;5053493;28;20064;-71
2022/09/27 08:55:57;;;;;;;9.27;6.75;;;;;;;;;;5052612;28;20056;-75
2022/09/27 08:58:47;;;;;;;9.93;7.40;;;;;;;;;;5052933;28;20053;-72
2022/09/27 09:01:23;;;;;;;13.43;6.95;;;;;;;;;;5048671;28;20057;-72
2022/09/27 09:04:11;;;;;;;13.10;7.18;;;;;;;;;;5051003;28;20060;-76
2022/09/27 09:07:13;;;;;;;11.88;6.82;;;;;;;;;;5052573;28;20052;-75
2022/09/27 09:12:45;;;;;;;8.88;5.88;;;;;;;;;;5033427;28;20067;-75
2022/09/27 09:13:37;;;;;;;8.68;6.07;;;;;;;;;;5046864;28;20049;-75
2022/09/27 09:16:27;;;;;;;11.70;6.63;;;;;;;;;;5048394;28;20059;-69
2022/09/27 09:19:11;;;;;;;9.70;7.22;;;;;;;;;;5048137;28;20048;-75
2022/09/27 09:21:52;;;;;;;8.60;6.22;;;;;;;;;;5048169;28;20063;-72
2022/09/27 09:24:31;;;;;;;12.38;6.57;;;;;;;;;;5048435;28;20392;-75
2022/09/27 09:27:35;;;;;;;13.57;7.57;;;;;;;;;;5048889;28;20052;-73
2022/09/27 09:30:11;;;;;;;12.02;6.47;;;;;;;;;;5048734;28;20064;-69
2022/09/27 09:33:15;;;;;;;11.93;5.93;;;;;;;;;;5049490;28;20551;-72
2022/09/27 09:36:15;;;;;;;10.38;6.65;;;;;;;;;;5048689;28;20068;-71
2022/09/27 09:38:59;;;;;;;11.93;7.65;;;;;;;;;;5028569;28;20072;-75
2022/09/27 09:41:29;;;;;;;10.45;6.05;;;;;;;;;;5048427;28;20048;-72
2022/09/27 09:44:06;;;;;;;;;;;;;;;;;;5049240;28;20052;-74
2022/09/27 09:46:41;;;;;;;10.57;7.20;;;;;;;;;;5053069;28;19921;-74
2022/09/27 09:49:16;;;;;;;14.98;7.55;;;;;;;;;;5056309;28;20460;-68
2022/09/27 09:52:14;;;;;;;14.30;8.27;;;;;;;;;;5047801;28;20056;-74
2022/09/27 09:54:45;;;;;;;12.70;7.80;;;;;;;;;;5048173;28;20049;-75
2022/09/27 09:57:22;;;;;;;15.65;6.57;;;;;;;;;;5048243;28;20061;-71
2022/09/27 10:00:00;;;;;;;11.13;6.88;;;;;;;;;;5046455;28;20064;-77
2022/09/27 10:02:37;;;;;;;12.57;7.10;;;;;;;;;;5052822;28;20427;-75
2022/09/27 10:05:20;;;;;;;11.35;6.53;;;;;;;;;;5047647;28;20056;-71
2022/09/27 10:08:02;;;;;;;17.13;7.10;;;;;;;;;;5047285;28;20062;-74
2022/09/27 10:10:33;;;;;;;14.38;7.15;;;;;;;;;;5046343;28;20546;-74
2022/09/27 10:13:27;;;;;;;15.45;7.45;;;;;;;;;;5047785;28;20049;-73
2022/09/27 10:16:13;;;;;;;67.20;28.63;;;;;;;;;;5046998;28;20668;-74
2022/09/27 10:18:44;;;;;;;53.17;26.80;;;;;;;;;;5046548;28;20045;-74
2022/09/27 10:21:20;;;;;;;76.80;44.42;;;;;;;;;;5046300;28;20049;-74
2022/09/27 10:24:18;;;;;;;25.52;19.67;;;;;;;;;;5045879;28;20053;-73
2022/09/27 10:27:04;;;;;;;14.52;9.27;;;;;;;;;;5045709;28;20060;-74
2022/09/27 10:29:38;;;;;;;20.13;11.73;;;;;;;;;;5047626;28;20060;-76
2022/09/27 10:32:32;;;;;;;19.08;10.57;;;;;;;;;;5045965;28;20049;-74
2022/09/27 10:35:29;;;;;;;13.73;9.40;;;;;;;;;;5052221;28;20060;-71
2022/09/27 10:38:22;;;;;;;19.70;8.75;;;;;;;;;;5046001;28;20052;-76
2022/09/27 10:41:16;;;;;;;21.13;12.13;;;;;;;;;;5046867;28;20060;-73
2022/09/27 10:43:46;;;;;;;10.98;7.00;;;;;;;;;;5045817;28;20542;-75
2022/09/27 10:46:32;;;;;;;8.45;6.18;;;;;;;;;;5045731;28;20053;-75
2022/09/27 10:49:34;;;;;;;14.48;6.45;;;;;;;;;;5058486;28;20056;-74
2022/09/27 10:52:21;;;;;;;11.57;8.00;;;;;;;;;;5086982;28;20055;-74
2022/09/27 10:54:54;;;;;;;18.52;7.78;;;;;;;;;;5085458;28;20077;-75
2022/09/27 10:57:30;;;;;;;15.32;5.78;;;;;;;;;;5084612;28;20048;-70
2022/09/27 11:00:21;;;;;;;22.88;6.65;;;;;;;;;;5085229;28;20058;-76
2022/09/27 11:02:55;;;;;;;13.65;6.03;;;;;;;;;;5084103;28;20056;-72
2022/09/27 11:05:34;;;;;;;9.02;5.47;;;;;;;;;;5085629;28;20052;-75
2022/09/27 11:08:28;;;;;;;12.77;5.78;;;;;;;;;;5084901;28;20052;-72
2022/09/27 11:11:15;;;;;;;12.65;7.60;;;;;;;;;;5084959;28;20419;-73
2022/09/27 11:14:06;;;;;;;9.13;4.90;;;;;;;;;;5086403;28;20036;-76
2022/09/27 11:16:44;;;;;;;;;;;;;;;;;;5084989;28;20056;-73
2022/09/27 11:19:23;;;;;;;22.40;5.53;;;;;;;;;;5084643;28;19931;-75
2022/09/27 11:22:14;;;;;;;14.52;5.38;;;;;;;;;;5084889;28;20047;-74
2022/09/27 11:25:04;;;;;;;8.65;4.95;;;;;;;;;;5083928;28;20063;-74
2022/09/27 11:28:02;;;;;;;9.45;5.78;;;;;;;;;;5085167;28;20048;-71
2022/09/27 11:30:57;;;;;;;11.20;4.47;;;;;;;;;;5084139;28;20064;-74
2022/09/27 11:34:07;;;;;;;13.35;5.13;;;;;;;;;;5084662;28;20070;-75
2022/09/27 11:37:00;;;;;;;11.15;4.30;;;;;;;;;;5083053;28;20044;-73
2022/09/27 11:39:52;;;;;;;18.10;4.60;;;;;;;;;;5082915;28;20857;-73
2022/09/27 11:42:46;;;;;;;11.43;5.30;;;;;;;;;;5083321;28;20055;-74
2022/09/27 11:45:25;;;;;;;12.63;3.97;;;;;;;;;;5083588;28;20518;-73
2022/09/27 11:48:30;;;;;;;10.50;4.80;;;;;;;;;;5083571;28;20056;-77
2022/09/27 11:51:21;;;;;;;10.02;3.83;;;;;;;;;;5085492;28;20063;-74
2022/09/27 11:54:33;;;;;;;6.70;4.10;;;;;;;;;;5084656;28;20051;-74
2022/09/27 11:57:04;;;;;;;7.32;3.80;;;;;;;;;;5065642;28;20147;-75
2022/09/27 11:59:34;;;;;;;5.53;3.22;;;;;;;;;;5084866;28;20495;-71
2022/09/27 12:02:15;;;;;;;5.00;3.47;;;;;;;;;;5086500;28;20062;-71
2022/09/27 12:04:50;;;;;;;6.55;3.38;;;;;;;;;;5084464;28;20386;-72
2022/09/27 12:08:01;;;;;;;5.65;3.28;;;;;;;;;;5084559;28;20040;-74
2022/09/27 12:10:32;;;;;;;8.27;3.47;;;;;;;;;;5083355;28;20064;-76
2022/09/27 12:13:03;;;;;;;12.85;4.20;;;;;;;;;;5084922;28;20056;-75
2022/09/27 12:15:38;;;;;;;8.63;4.22;;;;;;;;;;5088522;28;20048;-75
2022/09/27 12:18:28;;;;;;;;;;;;;;;;;;5088740;28;20426;-72
2022/09/27 12:21:03;;;;;;;10.23;3.63;;;;;;;;;;5088143;28;19931;-74
2022/09/27 12:23:46;;;;;;;5.00;3.65;;;;;;;;;;5087675;28;20541;-75
2022/09/27 12:26:36;;;;;;;9.68;4.00;;;;;;;;;;5088110;28;20059;-75
2022/09/27 12:29:35;;;;;;;5.05;3.25;;;;;;;;;;5087177;28;20060;-76
2022/09/27 12:32:17;;;;;;;6.00;3.80;;;;;;;;;;5083241;28;20056;-74
2022/09/27 12:35:02;;;;;;;10.93;4.03;;;;;;;;;;5088537;28;20059;-75
2022/09/27 12:37:42;;;;;;;7.82;4.32;;;;;;;;;;5087841;28;20052;-74
2022/09/27 12:40:21;;;;;;;11.23;4.28;;;;;;;;;;5088773;28;20052;-73
2022/09/27 12:43:13;;;;;;;9.27;4.32;;;;;;;;;;5088165;28;20548;-73
2022/09/27 12:46:17;;;;;;;7.72;4.13;;;;;;;;;;5087206;28;20067;-71
2022/09/27 12:49:14;;;;;;;5.90;4.20;;;;;;;;;;5087402;28;20514;-72
2022/09/27 12:52:00;;;;;;;6.70;3.55;;;;;;;;;;5104352;28;20055;-74
2022/09/27 12:54:54;;;;;;;8.07;4.60;;;;;;;;;;5087571;28;20052;-74
2022/09/27 12:58:01;;;;;;;8.35;3.45;;;;;;;;;;5087955;28;20052;-74
2022/09/27 13:00:54;;;;;;;8.98;3.33;;;;;;;;;;5087306;28;20515;-74
2022/09/27 13:03:54;;;;;;;8.73;2.95;;;;;;;;;;5090136;28;20070;-72
2022/09/27 13:06:56;;;;;;;4.70;2.40;;;;;;;;;;5089442;28;20052;-75
2022/09/27 13:09:49;;;;;;;5.57;2.88;;;;;;;;;;5087313;28;20047;-75
2022/09/27 13:12:25;;;;;;;5.28;2.75;;;;;;;;;;5103760;28;20170;-72
2022/09/27 13:15:16;;;;;;;13.60;3.60;;;;;;;;;;5087421;28;20063;-76
2022/09/27 13:17:47;;;;;;;12.75;3.13;;;;;;;;;;5087268;28;20055;-74
2022/09/27 13:20:45;;;;;;;2.15;1.73;;;;;;;;;;5091322;28;20056;-72
2022/09/27 13:23:34;;;;;;;8.30;3.13;;;;;;;;;;5103584;28;20051;-76
2022/09/27 13:26:44;;;;;;;8.23;3.10;;;;;;;;;;5071022;28;20052;-78
2022/09/27 13:29:24;;;;;;;7.43;2.88;;;;;;;;;;5009150;28;20057;-72
2022/09/27 13:31:58;;;;;;;;;;;;;;;;;;5009166;28;20057;-74
2022/09/27 13:34:52;;;;;;;5.20;3.20;;;;;;;;;;5071786;28;20465;-79
2022/09/27 13:37:44;;;;;;;12.70;5.72;;;;;;;;;;5086818;28;20510;-76
2022/09/27 13:40:23;;;;;;;9.85;4.22;;;;;;;;;;5071324;28;20052;-74
2022/09/27 13:43:11;;;;;;;6.55;3.83;;;;;;;;;;5086148;28;20056;-74
2022/09/27 13:46:08;;;;;;;7.15;3.90;;;;;;;;;;5086725;28;20060;-73
2022/09/27 13:48:54;;;;;;;7.55;3.53;;;;;;;;;;5070925;28;20510;-73
2022/09/27 13:51:54;;;;;;;12.15;4.88;;;;;;;;;;5087093;28;20418;-75
2022/09/27 13:54:49;;;;;;;8.68;5.07;;;;;;;;;;5086862;28;20059;-72
2022/09/27 13:57:34;;;;;;;7.47;4.03;;;;;;;;;;5086376;28;20147;-71
2022/09/27 14:00:08;;;;;;;5.15;3.28;;;;;;;;;;5086807;28;20166;-73
2022/09/27 14:03:05;;;;;;;4.72;3.10;;;;;;;;;;5086264;28;20055;-73
2022/09/27 14:05:48;;;;;;;5.93;2.95;;;;;;;;;;5086826;28;20044;-71
2022/09/27 14:08:38;;;;;;;7.63;3.25;;;;;;;;;;5103024;28;20055;-72
2022/09/27 14:11:16;;;;;;;3.22;2.67;;;;;;;;;;5077136;28;20059;-74
2022/09/27 14:13:48;;;;;;;4.93;2.58;;;;;;;;;;5085466;28;20056;-72
2022/09/27 14:16:20;;;;;;;5.88;3.17;;;;;;;;;;5086898;28;20406;-74
2022/09/27 14:18:58;;;;;;;4.63;2.72;;;;;;;;;;5086032;28;20119;-71
2022/09/27 14:21:38;;;;;;;4.35;3.13;;;;;;;;;;5086239;28;20059;-76
2022/09/27 14:24:32;;;;;;;6.13;2.63;;;;;;;;;;5086143;28;20052;-71
2022/09/27 14:27:33;;;;;;;3.95;2.60;;;;;;;;;;5084988;28;20435;-73
2022/09/27 14:30:29;;;;;;;10.65;2.75;;;;;;;;;;5087329;28;20055;-74
2022/09/27 14:33:30;;;;;;;6.72;2.95;;;;;;;;;;5086971;28;20055;-74
2022/09/27 14:39:15;;;;;;;4.93;2.35;;;;;;;;;;5084276;28;20048;-76
2022/09/27 14:41:50;;;;;;;6.72;2.47;;;;;;;;;;5085786;28;20052;-74
2022/09/27 14:44:20;;;;;;;5.03;2.35;;;;;;;;;;5087353;28;20840;-73
2022/09/27 14:47:22;;;;;;;2.53;2.00;;;;;;;;;;5087168;28;20044;-76
2022/09/27 14:50:00;;;;;;;5.40;2.15;;;;;;;;;;5087473;28;20051;-77
2022/09/27 14:52:35;;;;;;;5.00;2.72;;;;;;;;;;5087306;28;20407;-73
2022/09/27 14:55:29;;;;;;;7.60;2.72;;;;;;;;;;5086021;28;20423;-74
2022/09/27 14:58:02;;;;;;;5.18;2.30;;;;;;;;;;5080916;28;20526;-78
2022/09/27 15:00:35;;;;;;;5.05;2.38;;;;;;;;;;5086921;28;20521;-76
2022/09/27 15:03:08;;;;;;;4.20;2.28;;;;;;;;;;5087151;28;20043;-76
2022/09/27 15:05:42;;;;;;;4.47;2.20;;;;;;;;;;5088133;28;20052;-74
2022/09/27 15:08:14;;;;;;;4.45;2.10;;;;;;;;;;5087813;28;20066;-73
2022/09/27 15:10:48;;;;;;;4.80;2.10;;;;;;;;;;5086962;28;20048;-76
2022/09/27 15:13:20;;;;;;;5.65;2.38;;;;;;;;;;5083993;28;20048;-72
2022/09/27 15:15:51;;;;;;;5.15;2.45;;;;;;;;;;5086540;28;20048;-72
2022/09/27 15:18:45;;;;;;;3.35;2.08;;;;;;;;;;5087241;28;20056;-73
2022/09/27 15:21:31;;;;;;;5.35;2.30;;;;;;;;;;5086924;28;20044;-73
2022/09/27 15:24:02;;;;;;;4.90;2.40;;;;;;;;;;5086310;28;20060;-74
2022/09/27 15:26:45;;;;;;;5.47;2.00;;;;;;;;;;5086215;28;20044;-73
2022/09/27 15:29:21;;;;;;;4.35;2.20;;;;;;;;;;5086830;28;20051;-73
2022/09/27 15:32:04;;;;;;;4.00;2.03;;;;;;;;;;5086816;28;20047;-73
2022/09/27 15:34:36;;;;;;;4.25;2.13;;;;;;;;;;5086541;28;20055;-72
2022/09/27 15:37:06;;;;;;;6.25;3.35;;;;;;;;;;5086708;28;20040;-73
2022/09/27 15:39:37;;;;;;;7.13;3.63;;;;;;;;;;5086783;28;20499;-74
2022/09/27 15:42:07;;;;;;;4.00;1.50;;;;;;;;;;5087136;28;20052;-73
2022/09/27 15:44:47;;;;;;;8.40;2.08;;;;;;;;;;5086783;28;20055;-74
2022/09/27 15:47:39;;;;;;;4.63;1.73;;;;;;;;;;5086616;28;20056;-73
2022/09/27 15:50:15;;;;;;;4.10;1.63;;;;;;;;;;5090538;28;20044;-73
2022/09/27 15:52:51;;;;;;;2.80;1.40;;;;;;;;;;5090345;28;20048;-74
2022/09/27 15:55:25;;;;;;;6.63;1.50;;;;;;;;;;5090605;28;20063;-74
2022/09/27 15:58:01;;;;;;;3.63;1.30;;;;;;;;;;5089335;28;20048;-72
2022/09/27 16:00:31;;;;;;;3.17;1.42;;;;;;;;;;5090517;28;20609;-73
2022/09/27 16:03:02;;;;;;;1.40;1.23;;;;;;;;;;5090723;28;20040;-79
2022/09/27 16:05:32;;;;;;;3.95;1.80;;;;;;;;;;5090827;28;20048;-74
2022/09/27 16:08:01;;;;;;;4.88;1.60;;;;;;;;;;5090920;28;20056;-74